Time;durP1;ratioP1;P1;durP2;ratioP2;P2;SDS_P1;SDS_P2;PMS_P1;PMS_P2;Temp;Humidity;BMP_temperature;BMP_pressure;BME280_temperature;BME280_humidity;BME280_pressure;Samples;Min_cycle;Max_cycle;Signal;HPM_P1;HPM_P2
2022/06/09 00:04:34;;;;;;;1.48;1.10;;;;;;;18.29;68.61;99114.75;10441786;28;20045;-74
2022/06/09 00:09:44;;;;;;;1.25;1.08;;;;;;;18.39;66.98;99113.06;10463770;28;20398;-74
2022/06/09 00:14:46;;;;;;;1.05;0.90;;;;;;;18.32;64.27;99119.81;10459962;28;20037;-74
2022/06/09 00:19:48;;;;;;;1.48;1.25;;;;;;;18.22;63.72;99124.19;10442343;28;20067;-74
2022/06/09 00:24:50;;;;;;;2.95;1.27;;;;;;;17.73;65.52;99143.84;10443623;28;20079;-74
2022/06/09 00:29:52;;;;;;;3.05;1.20;;;;;;;17.35;67.26;99144.88;10463822;28;20044;-74
2022/06/09 00:34:53;;;;;;;2.45;0.93;;;;;;;17.27;67.41;99148.13;10460153;28;20051;-75
2022/06/09 00:39:57;;;;;;;2.17;1.20;;;;;;;17.28;66.30;99147.16;10459027;28;20124;-75
2022/06/09 00:45:25;;;;;;;3.40;1.20;;;;;;;17.30;65.98;99155.00;10423797;28;20056;-74
2022/06/09 00:50:30;;;;;;;1.98;0.98;;;;;;;17.26;66.40;99157.03;10441115;28;20107;-74
2022/06/09 00:55:33;;;;;;;1.90;0.90;;;;;;;16.89;68.05;99154.41;10444381;28;20045;-74
2022/06/09 01:00:46;;;;;;;1.55;1.00;;;;;;;16.82;68.88;99153.16;10442771;28;20053;-74
2022/06/09 01:05:51;;;;;;;3.85;0.90;;;;;;;16.62;69.83;99161.66;10466015;28;20068;-74
2022/06/09 01:10:52;;;;;;;2.05;1.23;;;;;;;16.50;70.96;99173.97;10468752;28;20086;-74
2022/06/09 01:16:08;;;;;;;3.47;1.17;;;;;;;16.57;70.40;99169.94;10470168;28;20037;-74
2022/06/09 01:21:47;;;;;;;2.28;0.90;;;;;;;16.48;71.15;99170.56;10449599;28;20457;-74
2022/06/09 01:27:13;;;;;;;2.63;0.95;;;;;;;16.32;71.84;99169.94;10449474;28;20040;-74
2022/06/09 01:32:27;;;;;;;3.10;1.00;;;;;;;16.39;71.67;99163.25;10467679;28;20037;-74
2022/06/09 01:37:47;;;;;;;7.55;1.00;;;;;;;16.52;70.78;99155.31;10469605;28;20091;-73
2022/06/09 01:42:51;;;;;;;3.70;1.10;;;;;;;16.48;71.29;99167.06;10467531;28;20037;-74
2022/06/09 01:47:55;;;;;;;3.08;1.25;;;;;;;16.48;71.52;99175.03;10466704;28;20037;-74
2022/06/09 01:53:01;;;;;;;2.22;0.95;;;;;;;16.36;72.29;99182.88;10464753;28;20049;-74
2022/06/09 01:58:05;;;;;;;3.05;1.02;;;;;;;16.44;71.97;99189.47;10432955;28;20417;-74
2022/06/09 02:03:13;;;;;;;2.22;0.90;;;;;;;16.32;72.82;99188.50;10464505;28;20056;-73
2022/06/09 02:08:22;;;;;;;3.22;1.40;;;;;;;16.44;72.29;99194.78;10446744;28;20556;-73
2022/06/09 02:13:31;;;;;;;1.75;1.10;;;;;;;16.31;72.61;99200.91;10465129;28;20060;-73
2022/06/09 02:18:37;;;;;;;3.20;0.80;;;;;;;16.45;72.02;99209.72;10463554;28;20044;-73
2022/06/09 02:23:39;;;;;;;2.90;1.00;;;;;;;16.50;72.17;99208.44;10465418;28;20055;-73
2022/06/09 02:28:41;;;;;;;1.38;0.82;;;;;;;16.26;73.17;99207.50;10446115;28;20049;-73
2022/06/09 02:33:44;;;;;;;2.95;0.85;;;;;;;16.11;73.82;99210.25;10464863;28;20041;-73
2022/06/09 02:38:46;;;;;;;1.27;0.73;;;;;;;16.30;72.48;99225.75;10465488;28;20033;-73
2022/06/09 02:43:47;;;;;;;2.33;0.77;;;;;;;16.42;72.27;99233.78;10468009;28;20155;-73
2022/06/09 02:48:49;;;;;;;1.95;0.88;;;;;;;16.26;72.61;99231.38;10462452;28;20052;-73
2022/06/09 02:53:56;;;;;;;1.38;0.70;;;;;;;16.22;72.84;99254.56;10444633;28;20047;-73
2022/06/09 02:58:58;;;;;;;2.40;0.80;;;;;;;16.24;73.57;99257.13;10461741;28;20044;-73
2022/06/09 03:04:00;;;;;;;1.00;0.75;;;;;;;16.26;73.27;99277.28;10464018;28;20045;-74
2022/06/09 03:09:03;;;;;;;1.80;0.80;;;;;;;16.28;73.77;99274.53;10461670;28;20045;-73
2022/06/09 03:14:04;;;;;;;0.98;0.80;;;;;;;16.30;73.81;99273.47;10443092;28;20048;-73
2022/06/09 03:19:06;;;;;;;1.33;0.80;;;;;;;16.32;73.66;99276.00;10443429;28;20040;-73
2022/06/09 03:24:08;;;;;;;1.35;0.77;;;;;;;16.32;73.80;99265.41;10443263;28;20053;-74
2022/06/09 03:29:10;;;;;;;2.90;0.80;;;;;;;16.32;73.70;99268.91;10462330;28;20037;-72
2022/06/09 03:34:12;;;;;;;2.03;0.90;;;;;;;16.24;74.34;99260.59;10484671;22;20046;-67
2022/06/09 03:39:14;;;;;;;2.05;0.90;;;;;;;16.24;74.18;99262.41;10499560;28;20102;-68
2022/06/09 03:44:16;;;;;;;1.83;0.88;;;;;;;16.32;74.14;99255.66;10499272;28;20489;-68
2022/06/09 03:49:17;;;;;;;2.72;0.95;;;;;;;16.14;75.04;99268.34;10499455;28;20367;-68
2022/06/09 03:54:19;;;;;;;2.63;1.05;;;;;;;16.12;75.51;99274.72;10499179;28;20044;-67
2022/06/09 03:59:21;;;;;;;1.52;0.73;;;;;;;16.28;75.23;99271.88;10499913;28;20079;-68
2022/06/09 04:04:22;;;;;;;1.50;0.70;;;;;;;16.48;74.03;99271.38;10499343;28;20123;-68
2022/06/09 04:09:24;;;;;;;1.10;0.60;;;;;;;16.53;73.79;99285.19;10498491;28;20131;-68
2022/06/09 04:14:26;;;;;;;2.92;1.00;;;;;;;16.72;73.25;99283.91;10499006;28;20037;-68
2022/06/09 04:19:27;;;;;;;1.83;0.80;;;;;;;16.66;73.92;99290.50;10499889;28;20082;-68
2022/06/09 04:24:29;;;;;;;2.25;0.77;;;;;;;16.69;74.29;99290.28;10498278;28;20040;-68
2022/06/09 04:29:31;;;;;;;6.22;0.85;;;;;;;16.94;73.13;99284.16;10498709;28;20051;-68
2022/06/09 04:34:33;;;;;;;1.40;0.60;;;;;;;17.09;72.01;99291.06;10498522;28;20041;-68
2022/06/09 04:39:35;;;;;;;4.32;1.30;;;;;;;17.24;71.48;99290.91;10497388;28;20135;-68
2022/06/09 04:44:36;;;;;;;1.70;0.70;;;;;;;17.17;72.62;99295.81;10498535;28;20041;-68
2022/06/09 04:49:38;;;;;;;2.00;0.80;;;;;;;16.91;73.86;99302.97;10498319;28;20119;-68
2022/06/09 04:54:40;;;;;;;2.90;1.00;;;;;;;17.04;73.68;99305.59;10497892;28;20071;-68
2022/06/09 04:59:41;;;;;;;3.03;0.80;;;;;;;16.96;74.65;99308.81;10496210;28;20570;-69
2022/06/09 05:04:44;;;;;;;1.60;0.70;;;;;;;16.95;74.54;99307.06;10497438;28;20120;-67
2022/06/09 05:09:46;;;;;;;2.83;0.90;;;;;;;17.03;74.30;99306.56;10497356;28;20123;-68
2022/06/09 05:14:49;;;;;;;1.85;0.77;;;;;;;17.07;73.79;99316.84;10497215;28;20127;-68
2022/06/09 05:19:50;;;;;;;2.97;0.85;;;;;;;16.98;74.11;99335.22;10497299;28;20045;-70
2022/06/09 05:24:52;;;;;;;1.42;0.70;;;;;;;16.87;75.66;99338.63;10497499;28;20098;-68
2022/06/09 05:29:54;;;;;;;3.00;0.80;;;;;;;16.96;74.83;99340.66;10497585;28;20102;-69
2022/06/09 05:34:55;;;;;;;2.85;0.70;;;;;;;17.08;74.45;99346.91;10496734;28;20040;-68
2022/06/09 05:45:17;;;;;;;2.67;0.90;;;;;;;17.01;75.11;99358.94;10496718;28;20047;-69
2022/06/09 05:50:19;;;;;;;1.80;0.90;;;;;;;17.01;74.54;99364.22;10499229;28;20041;-68
2022/06/09 05:55:21;;;;;;;1.73;0.80;;;;;;;17.19;73.61;99370.06;10504487;28;20055;-69
2022/06/09 06:00:23;;;;;;;1.60;0.70;;;;;;;17.44;72.57;99372.69;10503084;28;20135;-68
2022/06/09 06:10:44;;;;;;;1.40;0.60;;;;;;;17.41;73.09;99378.25;10503960;28;20512;-69
2022/06/09 06:15:46;;;;;;;1.70;0.75;;;;;;;17.46;72.84;99381.41;10503730;28;20048;-70
2022/06/09 06:20:48;;;;;;;1.88;0.80;;;;;;;17.24;74.11;99386.53;10503670;28;20624;-69
2022/06/09 06:25:51;;;;;;;1.73;0.70;;;;;;;16.92;74.76;99397.56;10503189;28;20045;-69
2022/06/09 06:30:53;;;;;;;1.13;0.70;;;;;;;16.94;75.41;99406.25;10502955;28;20044;-67
2022/06/09 06:35:55;;;;;;;2.30;0.70;;;;;;;17.01;74.23;99410.22;10501875;28;20055;-69
2022/06/09 06:40:56;;;;;;;1.27;0.93;;;;;;;16.98;74.48;99406.91;10503177;28;20052;-69
2022/06/09 06:45:58;;;;;;;1.85;0.65;;;;;;;17.02;75.48;99421.69;10503616;28;20040;-68
2022/06/09 06:51:01;;;;;;;1.45;0.60;;;;;;;17.31;73.76;99425.84;10502343;28;20501;-68
2022/06/09 06:56:03;;;;;;;2.85;1.00;;;;;;;17.25;73.52;99438.69;10496885;28;20151;-68
2022/06/09 07:01:06;;;;;;;3.15;1.02;;;;;;;17.28;73.34;99439.34;10483094;28;20044;-68
2022/06/09 07:06:08;;;;;;;1.35;0.80;;;;;;;17.24;74.01;99437.84;10479426;28;20037;-68
2022/06/09 07:11:10;;;;;;;1.73;0.80;;;;;;;17.39;73.14;99441.25;10456958;28;20104;-68
2022/06/09 07:16:12;;;;;;;1.98;0.70;;;;;;;17.38;74.70;99442.22;10467185;28;20052;-68
2022/06/09 07:21:34;;;;;;;1.83;0.82;;;;;;;17.55;73.07;99441.03;10469980;28;20047;-68
2022/06/09 07:26:36;;;;;;;1.38;0.60;;;;;;;17.57;72.35;99447.94;10495245;28;20101;-69
2022/06/09 07:31:38;;;;;;;2.22;0.80;;;;;;;17.52;73.94;99455.38;10500381;28;20056;-68
2022/06/09 07:36:41;;;;;;;1.58;0.80;;;;;;;17.60;73.15;99466.31;10500172;28;20493;-68
2022/06/09 07:41:43;;;;;;;0.80;0.65;;;;;;;17.68;73.00;99475.59;10500661;28;20040;-69
2022/06/09 07:46:44;;;;;;;2.30;0.90;;;;;;;17.70;72.11;99481.63;10500156;28;20090;-68
2022/06/09 07:51:46;;;;;;;1.80;0.90;;;;;;;17.61;72.93;99488.44;10467026;28;20563;-69
2022/06/09 07:56:48;;;;;;;3.13;0.70;;;;;;;17.43;74.72;99492.38;10457864;28;20140;-69
2022/06/09 08:01:50;;;;;;;3.58;0.85;;;;;;;17.46;73.02;99495.66;10459519;28;20087;-69
2022/06/09 08:06:56;;;;;;;1.73;0.77;;;;;;;17.27;74.22;99496.09;10457490;28;20098;-69
2022/06/09 08:11:58;;;;;;;2.38;0.95;;;;;;;17.10;75.37;99497.22;10457022;28;20072;-69
2022/06/09 08:17:00;;;;;;;3.25;0.90;;;;;;;17.24;74.05;99503.41;10457065;28;20037;-69
2022/06/09 08:22:02;;;;;;;1.17;0.60;;;;;;;17.09;75.63;99513.25;10457861;28;20053;-68
2022/06/09 08:27:04;;;;;;;1.40;0.90;;;;;;;17.05;76.06;99514.41;10497834;28;20047;-69
2022/06/09 08:32:06;;;;;;;2.20;0.90;;;;;;;17.22;76.46;99529.19;10497235;28;20436;-69
2022/06/09 08:37:08;;;;;;;1.75;0.70;;;;;;;17.17;75.70;99529.50;10497802;28;20037;-69
2022/06/09 08:42:28;;;;;;;1.25;0.70;;;;;;;17.12;75.56;99542.25;10497800;28;20468;-69
2022/06/09 08:47:50;;;;;;;1.85;0.80;;;;;;;17.03;76.30;99541.06;10498101;28;20058;-68
2022/06/09 08:52:52;;;;;;;1.92;0.90;;;;;;;16.85;76.41;99544.94;10497658;28;20048;-69
2022/06/09 08:57:59;;;;;;;2.10;1.40;;;;;;;16.89;78.00;99549.09;10497286;28;20037;-68
2022/06/09 09:03:09;;;;;;;2.10;1.20;;;;;;;17.12;76.01;99560.84;10496443;28;20045;-69
2022/06/09 09:08:13;;;;;;;2.50;1.77;;;;;;;16.91;77.18;99571.09;10497970;28;20048;-69
2022/06/09 09:13:30;;;;;;;2.15;1.90;;;;;;;16.89;77.24;99576.47;10497465;28;20116;-68
2022/06/09 09:19:13;;;;;;;2.97;2.60;;;;;;;16.67;79.61;99585.91;10495851;28;20524;-67
2022/06/09 09:24:34;;;;;;;2.88;2.67;;;;;;;16.56;80.80;99591.91;10371076;28;20466;-67
2022/06/09 09:29:48;;;;;;;2.38;2.17;;;;;;;16.45;83.88;99595.22;10378596;28;20201;-68
2022/06/09 09:34:51;;;;;;;3.53;2.38;;;;;;;16.52;83.31;99601.00;10437761;22;20398;-77
2022/06/09 09:39:59;;;;;;;2.97;2.78;;;;;;;16.54;83.68;99602.59;10506964;28;20048;-77
2022/06/09 09:45:05;;;;;;;3.60;3.40;;;;;;;16.32;86.68;99594.28;10512031;28;20116;-77
2022/06/09 09:50:19;;;;;;;3.38;3.17;;;;;;;16.42;88.21;99608.66;10507151;28;20076;-76
2022/06/09 09:55:31;;;;;;;3.80;3.50;;;;;;;16.62;87.76;99613.56;10506024;28;20076;-74
2022/06/09 10:00:34;;;;;;;6.45;4.38;;;;;;;16.50;90.13;99611.69;10505120;28;20040;-74
2022/06/09 10:10:59;;;;;;;4.18;3.88;;;;;;;16.52;89.53;99633.69;10505971;28;20072;-77
2022/06/09 10:16:20;;;;;;;4.82;4.53;;;;;;;16.29;92.52;99634.25;10506346;28;20032;-77
2022/06/09 10:21:56;;;;;;;4.78;4.47;;;;;;;16.23;93.26;99643.44;10504431;28;20045;-77
2022/06/09 10:27:20;;;;;;;4.90;4.18;;;;;;;16.31;91.72;99640.31;10507718;28;20028;-76
2022/06/09 10:32:28;;;;;;;5.05;4.65;;;;;;;16.13;94.93;99647.59;10508575;28;20044;-75
2022/06/09 10:37:42;;;;;;;6.07;5.63;;;;;;;16.24;96.33;99645.13;10507730;28;20048;-76
2022/06/09 10:43:16;;;;;;;6.60;6.18;;;;;;;16.31;97.65;99649.13;10504218;28;20052;-75
2022/06/09 10:59:52;;;;;;;7.78;5.05;;;;;;;16.83;89.88;99664.50;10505514;28;20044;-75
2022/06/09 11:04:55;;;;;;;6.30;5.90;;;;;;;16.85;91.02;99667.03;10497829;28;20056;-75
2022/06/09 11:10:18;;;;;;;6.43;5.82;;;;;;;16.99;91.77;99663.50;10503094;28;20425;-75
2022/06/09 11:15:34;;;;;;;5.72;5.40;;;;;;;17.06;91.56;99667.47;10508639;28;20147;-74
2022/06/09 11:21:00;;;;;;;5.90;5.57;;;;;;;17.18;91.71;99664.03;10505025;28;20047;-74
2022/06/09 11:26:11;;;;;;;4.78;4.47;;;;;;;17.23;88.40;99667.25;10501768;28;20064;-75
2022/06/09 11:31:28;;;;;;;5.32;5.03;;;;;;;17.22;88.91;99669.97;10501913;28;20046;-76
2022/06/09 11:36:42;;;;;;;6.05;5.65;;;;;;;17.34;88.39;99663.88;10504940;28;20521;-75
2022/06/09 11:42:02;;;;;;;4.22;3.92;;;;;;;17.48;86.94;99663.81;10503041;28;20048;-75
2022/06/09 11:47:27;;;;;;;4.25;3.95;;;;;;;17.59;85.39;99658.66;10502347;28;20036;-74
2022/06/09 11:52:41;;;;;;;4.38;4.07;;;;;;;17.51;84.05;99662.75;10502828;28;20050;-74
2022/06/09 11:57:46;;;;;;;4.75;4.45;;;;;;;17.12;87.09;99670.56;10504702;28;20044;-75
2022/06/09 12:03:06;;;;;;;3.88;3.58;;;;;;;17.49;85.48;99664.69;10500282;28;20041;-75
2022/06/09 12:08:24;;;;;;;5.05;4.63;;;;;;;17.76;83.92;99668.19;10501415;28;20051;-74
2022/06/09 12:13:34;;;;;;;4.75;4.35;;;;;;;18.01;82.00;99678.00;10501515;28;20049;-74
2022/06/09 12:19:10;;;;;;;4.57;4.00;;;;;;;18.28;75.77;99671.72;10503199;28;20036;-74
2022/06/09 12:24:21;;;;;;;4.38;3.97;;;;;;;18.15;77.85;99683.25;10499298;28;20051;-73
2022/06/09 12:29:54;;;;;;;4.40;4.00;;;;;;;18.39;75.97;99687.81;10500480;28;20040;-73
2022/06/09 12:34:58;;;;;;;5.07;4.18;;;;;;;18.48;73.22;99689.84;10500803;28;20055;-73
2022/06/09 12:40:12;;;;;;;8.52;4.43;;;;;;;18.52;76.00;99688.66;10501704;28;20040;-73
2022/06/09 12:45:27;;;;;;;5.00;4.20;;;;;;;18.78;73.88;99702.00;10501918;28;20072;-74
2022/06/09 12:50:48;;;;;;;6.75;4.32;;;;;;;18.54;74.29;99693.88;10501861;28;20047;-73
2022/06/09 12:55:57;;;;;;;5.40;4.57;;;;;;;18.35;75.37;99703.13;10500025;28;20498;-73
2022/06/09 13:01:02;;;;;;;4.93;4.43;;;;;;;19.04;72.13;99697.47;10502073;28;20055;-73
2022/06/09 13:06:27;;;;;;;4.60;4.20;;;;;;;18.61;72.77;99713.78;10500907;28;20048;-73
2022/06/09 13:17:01;;;;;;;4.88;4.47;;;;;;;18.77;73.65;99719.78;10498422;28;20111;-74
2022/06/09 13:22:11;;;;;;;3.55;3.25;;;;;;;19.24;73.47;99725.31;10497498;28;20409;-74
2022/06/09 13:27:18;;;;;;;5.82;3.88;;;;;;;19.25;71.36;99717.19;10500502;28;20071;-74
2022/06/09 13:32:26;;;;;;;4.20;3.80;;;;;;;19.38;70.72;99727.81;10499249;28;20406;-74
2022/06/09 13:37:40;;;;;;;3.90;3.40;;;;;;;19.10;70.26;99724.50;10499280;28;20063;-74
2022/06/09 13:42:55;;;;;;;4.90;4.47;;;;;;;19.05;69.91;99731.97;10499032;28;20051;-74
2022/06/09 13:48:12;;;;;;;4.07;3.43;;;;;;;19.28;68.60;99729.47;10503181;28;20045;-73
2022/06/09 13:53:24;;;;;;;3.25;2.85;;;;;;;19.78;66.15;99732.91;10498039;28;20107;-74
2022/06/09 13:58:26;;;;;;;3.47;3.17;;;;;;;19.79;66.05;99731.94;10498708;28;20522;-74
2022/06/09 14:03:34;;;;;;;4.40;3.28;;;;;;;19.72;66.29;99731.56;10498991;28;20049;-73
2022/06/09 14:08:40;;;;;;;6.22;3.40;;;;;;;20.11;64.53;99734.88;10482766;28;20055;-72
2022/06/09 14:13:41;;;;;;;4.28;3.50;;;;;;;20.55;61.96;99735.97;10504548;28;20045;-73
2022/06/09 14:18:43;;;;;;;4.00;3.17;;;;;;;20.50;64.97;99738.16;10506365;28;20072;-73
2022/06/09 14:23:46;;;;;;;3.33;3.03;;;;;;;20.46;63.05;99736.66;10505964;28;20044;-76
2022/06/09 14:28:52;;;;;;;4.00;3.60;;;;;;;20.50;62.63;99741.66;10511671;28;20095;-77
2022/06/09 14:33:54;;;;;;;6.05;4.40;;;;;;;20.38;63.76;99739.91;10487974;28;20091;-76
2022/06/09 14:38:59;;;;;;;9.23;5.07;;;;;;;20.55;62.64;99736.81;10505773;28;20055;-77
2022/06/09 14:44:01;;;;;;;4.55;3.13;;;;;;;20.30;63.64;99736.97;10506536;28;20047;-77
2022/06/09 14:49:05;;;;;;;4.22;3.40;;;;;;;20.21;63.63;99740.34;10504143;28;20136;-77
2022/06/09 14:54:07;;;;;;;4.22;3.50;;;;;;;20.03;64.16;99756.78;10508380;28;20068;-78
2022/06/09 14:59:14;;;;;;;0.63;0.40;;;;;;;19.20;64.86;99769.13;10505710;28;20040;-73
2022/06/09 15:04:16;;;;;;;3.38;2.45;;;;;;;18.08;72.42;99792.81;10503506;28;20045;-74
2022/06/09 15:09:18;;;;;;;4.72;3.47;;;;;;;17.78;76.03;99779.72;10501659;28;20048;-74
2022/06/09 15:14:19;;;;;;;4.00;3.58;;;;;;;17.28;80.50;99792.63;10505973;28;20127;-74
2022/06/09 15:19:33;;;;;;;4.60;3.63;;;;;;;17.15;81.95;99783.75;10502394;28;20111;-74
2022/06/09 15:24:35;;;;;;;3.97;3.58;;;;;;;16.99;84.09;99785.63;10500177;28;20444;-74
2022/06/09 15:29:37;;;;;;;4.65;4.07;;;;;;;17.08;84.30;99795.69;10501995;28;20040;-74
2022/06/09 15:34:39;;;;;;;3.67;3.35;;;;;;;17.17;83.13;99800.41;10513304;22;20131;-67
2022/06/09 15:39:41;;;;;;;3.17;2.50;;;;;;;17.23;80.90;99794.75;10500244;28;20111;-67
2022/06/09 15:44:43;;;;;;;3.15;2.85;;;;;;;17.60;75.85;99806.50;10499994;28;20123;-67
2022/06/09 15:49:44;;;;;;;3.05;2.63;;;;;;;17.42;76.88;99812.16;10498332;28;20067;-67
2022/06/09 15:54:47;;;;;;;4.53;2.80;;;;;;;17.55;76.54;99811.28;10499987;28;20401;-67
2022/06/09 15:59:49;;;;;;;5.03;2.60;;;;;;;17.56;76.96;99809.47;10499061;28;20552;-67
2022/06/09 16:04:51;;;;;;;3.63;3.33;;;;;;;17.68;78.53;99806.03;10499605;28;20048;-67
2022/06/09 16:09:52;;;;;;;6.38;3.38;;;;;;;17.57;78.22;99811.16;10499735;28;20548;-67
2022/06/09 16:14:54;;;;;;;3.83;3.28;;;;;;;17.68;78.64;99815.81;10498799;28;20052;-68
2022/06/09 16:19:56;;;;;;;4.70;3.60;;;;;;;17.68;77.36;99814.00;10499456;28;20131;-67
2022/06/09 16:24:58;;;;;;;6.57;4.65;;;;;;;17.66;78.56;99823.88;10498629;28;20058;-68
2022/06/09 16:30:00;;;;;;;3.97;3.60;;;;;;;17.84;78.12;99819.19;10498491;28;20486;-68
2022/06/09 16:35:02;;;;;;;3.88;3.03;;;;;;;17.98;76.84;99819.16;10497782;28;20059;-68
2022/06/09 16:40:06;;;;;;;4.63;3.80;;;;;;;18.05;75.61;99836.41;10498843;28;20059;-68
2022/06/09 16:45:08;;;;;;;4.70;3.65;;;;;;;17.88;76.26;99834.88;10498362;28;20045;-68
2022/06/09 16:50:12;;;;;;;4.07;3.78;;;;;;;17.79;76.77;99838.09;10497641;28;20099;-67
2022/06/09 16:55:14;;;;;;;3.55;3.20;;;;;;;17.78;77.97;99844.38;10496262;28;20144;-68
2022/06/09 17:00:25;;;;;;;3.35;3.05;;;;;;;17.79;79.47;99853.22;10497093;28;20502;-67
2022/06/09 17:05:31;;;;;;;3.60;3.30;;;;;;;17.91;77.99;99855.09;10497850;28;20059;-66
2022/06/09 17:10:37;;;;;;;4.15;3.70;;;;;;;17.71;77.53;99861.66;10497980;28;20091;-68
2022/06/09 17:15:40;;;;;;;4.22;3.83;;;;;;;17.84;78.35;99864.41;10497050;28;20052;-68
2022/06/09 17:20:43;;;;;;;5.22;4.78;;;;;;;17.60;80.82;99865.00;10495598;28;20048;-68
2022/06/09 17:25:45;;;;;;;4.60;4.20;;;;;;;17.41;80.71;99872.44;10497527;28;20144;-68
2022/06/09 17:30:48;;;;;;;3.60;3.30;;;;;;;17.43;82.09;99883.78;10497855;28;20044;-68
2022/06/09 17:35:50;;;;;;;3.83;3.53;;;;;;;17.53;82.04;99892.03;10497238;28;20067;-68
2022/06/09 17:40:52;;;;;;;4.68;4.28;;;;;;;17.58;79.66;99904.13;10497738;28;20036;-68
2022/06/09 17:45:54;;;;;;;4.38;3.97;;;;;;;17.40;80.48;99895.50;10498588;28;20051;-67
2022/06/09 17:50:56;;;;;;;5.22;4.65;;;;;;;17.33;80.34;99898.63;10505640;28;20059;-67
2022/06/09 17:55:58;;;;;;;4.22;3.83;;;;;;;17.30;80.30;99898.78;10505332;28;20047;-68
2022/06/09 18:01:01;;;;;;;3.55;3.25;;;;;;;17.38;80.13;99909.81;10504330;28;20379;-68
2022/06/09 18:06:05;;;;;;;4.25;3.85;;;;;;;17.46;80.60;99914.66;10504145;28;20086;-68
2022/06/09 18:11:18;;;;;;;4.63;3.38;;;;;;;17.58;80.20;99922.72;10503669;28;20037;-68
2022/06/09 18:16:20;;;;;;;3.95;3.53;;;;;;;17.81;78.87;99928.44;10504324;28;20047;-68
2022/06/09 18:21:27;;;;;;;5.35;4.85;;;;;;;17.83;79.49;99934.50;10503616;28;20044;-68
2022/06/09 18:26:29;;;;;;;5.70;5.22;;;;;;;17.77;80.30;99938.41;10503876;28;20402;-68
2022/06/09 18:31:31;;;;;;;8.02;5.70;;;;;;;17.90;78.38;99946.44;10502991;28;20048;-67
2022/06/09 18:36:33;;;;;;;5.93;5.43;;;;;;;17.94;77.01;99947.97;10482781;28;20032;-68
2022/06/09 18:41:35;;;;;;;7.18;6.63;;;;;;;18.04;76.46;99950.88;10481003;28;20048;-68
2022/06/09 18:46:38;;;;;;;6.35;5.75;;;;;;;18.04;75.33;99948.22;10483575;28;20052;-68
2022/06/09 18:51:40;;;;;;;6.43;5.82;;;;;;;18.10;73.79;99959.31;10461069;28;20045;-68
2022/06/09 18:56:41;;;;;;;5.60;5.20;;;;;;;18.03;73.61;99967.81;10460029;28;20049;-68
2022/06/09 19:01:43;;;;;;;6.93;6.28;;;;;;;17.95;73.06;99972.75;10459252;28;20047;-68
2022/06/09 19:06:46;;;;;;;6.38;5.80;;;;;;;17.72;75.33;99975.03;10461611;28;20124;-68
2022/06/09 19:11:48;;;;;;;7.13;6.38;;;;;;;17.58;75.19;99978.53;10500909;28;20040;-67
2022/06/09 19:16:49;;;;;;;6.88;5.45;;;;;;;17.70;75.49;99986.69;10488485;28;20053;-68
2022/06/09 19:21:51;;;;;;;5.47;4.97;;;;;;;17.80;74.59;99987.88;10459906;28;20418;-68
2022/06/09 19:26:53;;;;;;;5.85;5.28;;;;;;;17.76;74.58;100011.13;10484286;28;20036;-68
2022/06/09 19:31:55;;;;;;;5.88;5.28;;;;;;;17.60;75.94;100016.50;10500699;28;20063;-67
2022/06/09 19:36:57;;;;;;;6.18;5.68;;;;;;;17.62;75.67;100016.41;10501091;28;20048;-68
2022/06/09 19:41:59;;;;;;;5.60;5.20;;;;;;;17.53;77.16;100024.91;10500239;28;20082;-67
2022/06/09 19:47:03;;;;;;;6.55;6.00;;;;;;;17.51;78.35;100033.00;10487002;28;20068;-69
2022/06/09 19:52:05;;;;;;;5.80;5.30;;;;;;;17.60;76.63;100034.25;10499896;28;20041;-67
2022/06/09 19:57:11;;;;;;;5.57;4.75;;;;;;;17.59;76.41;100041.38;10498064;28;20048;-68
2022/06/09 20:02:15;;;;;;;5.32;4.82;;;;;;;17.59;76.81;100049.34;10499930;28;20041;-68
2022/06/09 20:07:18;;;;;;;5.07;4.65;;;;;;;17.61;76.28;100058.06;10499074;28;20040;-68
2022/06/09 20:12:20;;;;;;;5.78;5.28;;;;;;;17.56;77.00;100057.50;10498735;28;20090;-68
2022/06/09 20:17:24;;;;;;;5.60;5.07;;;;;;;17.57;75.41;100063.66;10498824;28;20032;-69
2022/06/09 20:22:26;;;;;;;5.53;4.82;;;;;;;17.37;76.30;100071.03;10498982;28;20111;-68
2022/06/09 20:27:28;;;;;;;4.78;4.38;;;;;;;17.30;75.75;100069.66;10498563;28;20052;-68
2022/06/09 20:32:29;;;;;;;5.30;4.53;;;;;;;17.36;74.13;100066.66;10497444;28;20040;-67
2022/06/09 20:37:31;;;;;;;5.35;4.95;;;;;;;17.43;73.43;100069.81;10498113;28;20045;-68
2022/06/09 20:42:33;;;;;;;5.95;5.25;;;;;;;17.56;72.37;100080.56;10497763;28;20048;-68
2022/06/09 20:47:36;;;;;;;9.35;4.82;;;;;;;17.09;74.94;100073.63;10497912;28;20521;-68
2022/06/09 20:52:40;;;;;;;4.65;4.25;;;;;;;16.91;76.53;100086.16;10497782;28;20119;-68
2022/06/09 20:57:43;;;;;;;7.05;6.47;;;;;;;16.74;77.22;100088.91;10497765;28;20059;-68
2022/06/09 21:02:45;;;;;;;7.53;7.00;;;;;;;16.51;78.91;100096.31;10497338;28;20054;-67
2022/06/09 21:07:47;;;;;;;7.45;6.85;;;;;;;16.51;78.87;100098.09;10497708;28;20032;-67
2022/06/09 21:18:11;;;;;;;6.60;6.03;;;;;;;16.67;76.85;100092.78;10497242;28;20045;-68
2022/06/09 21:23:13;;;;;;;6.43;5.97;;;;;;;16.50;77.46;100099.88;10503803;28;20386;-67
2022/06/09 21:28:15;;;;;;;5.40;5.00;;;;;;;16.50;77.98;100102.53;10505441;28;20041;-67
2022/06/09 21:33:18;;;;;;;5.50;5.05;;;;;;;16.35;79.91;100103.41;10505353;28;20043;-68
2022/06/09 21:38:21;;;;;;;7.55;5.53;;;;;;;16.32;80.37;100109.72;10511334;23;20068;-73
2022/06/09 21:43:22;;;;;;;5.65;5.22;;;;;;;16.30;80.49;100122.22;10510255;28;20051;-73
2022/06/09 21:48:24;;;;;;;7.38;6.68;;;;;;;16.14;82.42;100116.00;10509168;28;20067;-74
2022/06/09 21:53:26;;;;;;;7.20;6.60;;;;;;;16.17;82.58;100117.66;10507955;28;20049;-73
2022/06/09 21:58:35;;;;;;;6.65;6.13;;;;;;;16.10;83.19;100120.63;10506513;28;20055;-73
2022/06/09 22:03:37;;;;;;;7.63;6.47;;;;;;;16.17;81.34;100115.84;10510793;28;20045;-73
2022/06/09 22:08:39;;;;;;;7.28;6.45;;;;;;;16.04;81.47;100118.31;10508917;28;20044;-74
2022/06/09 22:13:41;;;;;;;6.78;6.07;;;;;;;16.11;80.34;100116.16;10507324;28;20094;-73
2022/06/09 22:18:43;;;;;;;6.57;5.90;;;;;;;16.19;80.45;100129.03;10507149;28;20123;-73
2022/06/09 22:23:45;;;;;;;6.47;5.63;;;;;;;16.49;78.16;100130.03;10507646;28;20051;-74
2022/06/09 22:28:49;;;;;;;7.53;5.18;;;;;;;16.45;78.71;100141.75;10509781;28;20051;-74
2022/06/09 22:33:51;;;;;;;5.30;4.90;;;;;;;16.47;77.32;100139.88;10503579;28;20044;-73
2022/06/09 22:38:53;;;;;;;5.22;4.38;;;;;;;16.62;75.43;100154.09;10503321;28;20510;-74
2022/06/09 22:43:54;;;;;;;4.10;3.70;;;;;;;16.80;73.57;100150.44;10503546;28;20055;-73
2022/06/09 22:48:56;;;;;;;8.75;4.38;;;;;;;16.68;73.81;100163.50;10507298;28;20044;-73
2022/06/09 22:53:58;;;;;;;4.85;4.05;;;;;;;16.70;73.24;100167.81;10504577;28;20059;-74
2022/06/09 22:59:00;;;;;;;4.55;3.42;;;;;;;16.77;72.07;100169.19;10504821;28;20569;-74
2022/06/09 23:04:02;;;;;;;3.97;3.58;;;;;;;16.76;71.02;100182.56;10506196;28;20040;-74
2022/06/09 23:09:04;;;;;;;5.13;2.80;;;;;;;16.67;70.69;100180.38;10505778;28;20405;-74
2022/06/09 23:14:05;;;;;;;3.88;3.45;;;;;;;16.62;71.22;100181.50;10505874;28;20212;-74
2022/06/09 23:19:09;;;;;;;7.45;4.10;;;;;;;16.36;72.88;100185.53;10504379;28;20045;-74
2022/06/09 23:24:10;;;;;;;4.60;3.80;;;;;;;16.35;73.11;100199.75;10504478;28;20461;-74
2022/06/09 23:29:12;;;;;;;7.35;3.67;;;;;;;16.01;75.10;100221.84;10503444;28;20498;-74
2022/06/09 23:34:14;;;;;;;5.13;3.08;;;;;;;16.22;73.44;100214.59;10507899;28;20098;-74
2022/06/09 23:39:15;;;;;;;4.88;3.53;;;;;;;16.36;72.30;100212.06;10503652;28;20068;-73
2022/06/09 23:44:17;;;;;;;4.97;3.70;;;;;;;16.35;72.75;100214.81;10484799;28;20058;-72
2022/06/09 23:49:19;;;;;;;6.85;4.35;;;;;;;16.31;72.53;100226.53;10502014;28;20124;-73
2022/06/09 23:54:21;;;;;;;4.97;4.00;;;;;;;16.19;73.82;100243.06;10505184;28;20485;-74
2022/06/09 23:59:22;;;;;;;4.95;3.88;;;;;;;16.25;73.36;100254.22;10500720;28;20041;-73
